Time;durP1;ratioP1;P1;durP2;ratioP2;P2;SDS_P1;SDS_P2;PMS_P1;PMS_P2;Temp;Humidity;BMP_temperature;BMP_pressure;BME280_temperature;BME280_humidity;BME280_pressure;Samples;Min_cycle;Max_cycle;Signal;HPM_P1;HPM_P2
2022/08/27 00:02:23;;;;;;;25.33;21.03;;;;;;;;;;5031799;28;20235;-75
2022/08/27 00:04:48;;;;;;;24.83;19.20;;;;;;;;;;5041007;28;20175;-74
2022/08/27 00:07:14;;;;;;;22.17;17.67;;;;;;;;;;5041977;28;20192;-74
2022/08/27 00:09:39;;;;;;;23.57;17.73;;;;;;;;;;5033023;28;20188;-75
2022/08/27 00:12:05;;;;;;;19.40;16.70;;;;;;;;;;5042752;28;20183;-74
2022/08/27 00:14:30;;;;;;;20.83;16.73;;;;;;;;;;5052034;28;20226;-74
2022/08/27 00:16:56;;;;;;;17.90;15.83;;;;;;;;;;5050942;28;20252;-74
2022/08/27 00:19:21;;;;;;;18.83;16.80;;;;;;;;;;5045328;28;20196;-75
2022/08/27 00:21:47;;;;;;;16.23;14.60;;;;;;;;;;5032153;28;20170;-74
2022/08/27 00:24:12;;;;;;;17.67;14.83;;;;;;;;;;5032410;28;20240;-74
2022/08/27 00:26:38;;;;;;;19.73;15.77;;;;;;;;;;5032151;28;20193;-74
2022/08/27 00:29:03;;;;;;;14.33;12.23;;;;;;;;;;5031457;28;20275;-74
2022/08/27 00:31:29;;;;;;;13.43;11.50;;;;;;;;;;5030882;28;20177;-74
2022/08/27 00:33:54;;;;;;;12.40;11.03;;;;;;;;;;5044937;28;20203;-74
2022/08/27 00:36:19;;;;;;;10.97;9.97;;;;;;;;;;5052061;28;20176;-75
2022/08/27 00:38:45;;;;;;;9.70;8.40;;;;;;;;;;5039683;28;20263;-74
2022/08/27 00:41:11;;;;;;;9.73;8.70;;;;;;;;;;5040918;28;20188;-74
2022/08/27 00:43:58;;;;;;;8.90;8.10;;;;;;;;;;5044171;28;20169;-74
2022/08/27 00:46:26;;;;;;;9.53;8.70;;;;;;;;;;5049754;28;20169;-73
2022/08/27 00:48:54;;;;;;;10.57;9.57;;;;;;;;;;5042372;28;20163;-74
2022/08/27 00:51:23;;;;;;;10.40;9.40;;;;;;;;;;5051653;28;20173;-74
2022/08/27 00:53:48;;;;;;;10.57;9.57;;;;;;;;;;5050368;28;20320;-74
2022/08/27 00:56:16;;;;;;;10.93;9.37;;;;;;;;;;5050246;28;20212;-75
2022/08/27 00:58:44;;;;;;;10.07;9.00;;;;;;;;;;5050596;28;20188;-75
2022/08/27 01:01:10;;;;;;;10.60;9.60;;;;;;;;;;5050626;28;20256;-74
2022/08/27 01:03:36;;;;;;;10.67;9.57;;;;;;;;;;5044490;28;20182;-74
2022/08/27 01:06:04;;;;;;;11.37;10.17;;;;;;;;;;5066385;28;20176;-74
2022/08/27 01:08:31;;;;;;;10.03;9.03;;;;;;;;;;5031696;28;20170;-74
2022/08/27 01:10:57;;;;;;;11.73;9.37;;;;;;;;;;5031088;28;20177;-74
2022/08/27 01:13:24;;;;;;;9.60;8.70;;;;;;;;;;5030434;28;20198;-75
2022/08/27 01:15:50;;;;;;;10.00;9.00;;;;;;;;;;5030515;28;20179;-74
2022/08/27 01:18:17;;;;;;;10.20;9.20;;;;;;;;;;5031302;28;20168;-74
2022/08/27 01:20:55;;;;;;;8.90;8.10;;;;;;;;;;5044327;28;20182;-74
2022/08/27 01:23:24;;;;;;;9.20;7.70;;;;;;;;;;5031099;28;20277;-74
2022/08/27 01:25:49;;;;;;;7.83;7.13;;;;;;;;;;5030039;28;20269;-74
2022/08/27 01:28:15;;;;;;;7.83;7.13;;;;;;;;;;5031117;28;20278;-74
2022/08/27 01:30:40;;;;;;;8.73;7.93;;;;;;;;;;5030142;28;20172;-74
2022/08/27 01:33:14;;;;;;;8.07;6.90;;;;;;;;;;5037683;28;20189;-75
2022/08/27 01:35:40;;;;;;;8.10;7.40;;;;;;;;;;5036846;28;20199;-74
2022/08/27 01:38:06;;;;;;;9.20;7.73;;;;;;;;;;5031094;28;20179;-74
2022/08/27 01:40:31;;;;;;;8.00;7.20;;;;;;;;;;5048589;28;20182;-74
2022/08/27 01:42:57;;;;;;;9.33;8.43;;;;;;;;;;5037855;28;20289;-74
2022/08/27 01:45:24;;;;;;;10.10;9.10;;;;;;;;;;5029875;28;20179;-74
2022/08/27 01:47:49;;;;;;;9.03;8.10;;;;;;;;;;5029586;28;20184;-74
2022/08/27 01:50:19;;;;;;;8.47;7.67;;;;;;;;;;5029946;28;20174;-74
2022/08/27 01:52:45;;;;;;;11.13;8.93;;;;;;;;;;5029629;28;20253;-75
2022/08/27 01:55:12;;;;;;;8.30;7.50;;;;;;;;;;5051297;28;20263;-74
2022/08/27 01:57:38;;;;;;;7.70;7.00;;;;;;;;;;5032059;28;20184;-74
2022/08/27 02:00:04;;;;;;;11.27;8.20;;;;;;;;;;5033273;28;20250;-74
2022/08/27 02:02:31;;;;;;;8.67;7.87;;;;;;;;;;5032629;28;20187;-75
2022/08/27 02:04:56;;;;;;;8.60;7.80;;;;;;;;;;5043269;28;20209;-74
2022/08/27 02:07:21;;;;;;;7.47;6.87;;;;;;;;;;5070299;28;20177;-75
2022/08/27 02:09:47;;;;;;;8.03;7.33;;;;;;;;;;5052638;28;20182;-74
2022/08/27 02:12:12;;;;;;;8.20;7.33;;;;;;;;;;5055836;28;20186;-75
2022/08/27 02:14:37;;;;;;;7.80;7.10;;;;;;;;;;5032712;28;20220;-74
2022/08/27 02:17:02;;;;;;;9.33;8.53;;;;;;;;;;5050238;28;20166;-74
2022/08/27 02:19:28;;;;;;;8.07;7.37;;;;;;;;;;5057349;28;20256;-75
2022/08/27 02:21:53;;;;;;;8.87;7.93;;;;;;;;;;5061329;28;20173;-74
2022/08/27 02:24:19;;;;;;;9.13;7.23;;;;;;;;;;5032780;28;20174;-74
2022/08/27 02:26:44;;;;;;;10.20;8.80;;;;;;;;;;5050293;28;20185;-75
2022/08/27 02:29:09;;;;;;;10.23;9.17;;;;;;;;;;5050858;28;20183;-74
2022/08/27 02:31:35;;;;;;;15.50;13.90;;;;;;;;;;5049106;28;20183;-75
2022/08/27 02:34:00;;;;;;;15.63;13.23;;;;;;;;;;5047507;28;20204;-75
2022/08/27 02:36:26;;;;;;;17.30;15.50;;;;;;;;;;5032750;28;20163;-74
2022/08/27 02:38:51;;;;;;;19.20;17.17;;;;;;;;;;5050226;28;20201;-75
2022/08/27 02:41:16;;;;;;;20.13;18.03;;;;;;;;;;5053419;28;20205;-74
2022/08/27 02:43:42;;;;;;;21.67;19.50;;;;;;;;;;5070051;28;20170;-74
2022/08/27 02:46:09;;;;;;;43.80;35.87;;;;;;;;;;5059933;28;20171;-74
2022/08/27 02:48:36;;;;;;;45.30;39.60;;;;;;;;;;5039941;28;20179;-74
2022/08/27 02:51:01;;;;;;;54.10;43.20;;;;;;;;;;5050094;28;20163;-74
2022/08/27 02:53:27;;;;;;;42.73;37.97;;;;;;;;;;5022750;28;20225;-74
2022/08/27 02:55:52;;;;;;;50.37;39.83;;;;;;;;;;5009421;28;20172;-73
2022/08/27 02:58:17;;;;;;;50.60;42.37;;;;;;;;;;5010284;28;20175;-75
2022/08/27 03:00:43;;;;;;;53.10;42.20;;;;;;;;;;5010482;28;20227;-74
2022/08/27 03:03:09;;;;;;;51.20;42.27;;;;;;;;;;5021373;28;20250;-74
2022/08/27 03:05:35;;;;;;;54.07;43.63;;;;;;;;;;5020794;28;20197;-74
2022/08/27 03:08:01;;;;;;;53.17;42.57;;;;;;;;;;5030306;28;20181;-74
2022/08/27 03:10:26;;;;;;;46.47;38.87;;;;;;;;;;5033152;28;20250;-75
2022/08/27 03:12:51;;;;;;;47.90;38.27;;;;;;;;;;5032793;28;20176;-76
2022/08/27 03:15:17;;;;;;;39.50;32.50;;;;;;;;;;5033828;28;20201;-74
2022/08/27 03:20:27;;;;;;;38.60;33.63;;;;;;;;;;5019648;28;20193;-74
2022/08/27 03:22:53;;;;;;;38.60;33.63;;;;;;;;;;5030208;28;20171;-74
2022/08/27 03:25:18;;;;;;;40.50;35.80;;;;;;;;;;5032676;28;20174;-74
2022/08/27 03:27:43;;;;;;;43.57;34.83;;;;;;;;;;5032220;28;20186;-75
2022/08/27 03:30:11;;;;;;;34.07;30.13;;;;;;;;;;5032526;28;20188;-75
2022/08/27 03:32:36;;;;;;;33.47;29.40;;;;;;;;;;5027607;28;20177;-75
2022/08/27 03:35:02;;;;;;;34.57;29.97;;;;;;;;;;5016448;28;20206;-74
2022/08/27 03:37:27;;;;;;;35.93;29.37;;;;;;;;;;5031008;28;20209;-74
2022/08/27 03:39:53;;;;;;;34.20;28.83;;;;;;;;;;5032309;28;20184;-74
2022/08/27 03:42:19;;;;;;;37.10;32.50;;;;;;;;;;5024586;28;20225;-74
2022/08/27 03:44:44;;;;;;;37.80;30.70;;;;;;;;;;5012384;28;20234;-75
2022/08/27 03:47:09;;;;;;;36.87;31.87;;;;;;;;;;5018668;28;20251;-74
2022/08/27 03:49:35;;;;;;;36.77;30.30;;;;;;;;;;5019851;28;20296;-75
2022/08/27 03:52:00;;;;;;;43.47;34.70;;;;;;;;;;5013183;28;20192;-75
2022/08/27 03:54:25;;;;;;;39.07;33.13;;;;;;;;;;5041207;28;20309;-74
2022/08/27 03:56:51;;;;;;;32.27;27.43;;;;;;;;;;5035026;28;20177;-74
2022/08/27 03:59:17;;;;;;;34.67;27.50;;;;;;;;;;5051663;28;20180;-73
2022/08/27 04:01:43;;;;;;;33.83;28.87;;;;;;;;;;5034783;28;20168;-74
2022/08/27 04:04:08;;;;;;;35.20;29.43;;;;;;;;;;5046413;28;20613;-74
2022/08/27 04:06:34;;;;;;;35.57;28.10;;;;;;;;;;5072757;28;20184;-74
2022/08/27 04:08:59;;;;;;;32.87;28.40;;;;;;;;;;5055050;28;20175;-74
2022/08/27 04:11:24;;;;;;;39.70;30.13;;;;;;;;;;5066791;28;20256;-74
2022/08/27 04:13:50;;;;;;;35.20;26.67;;;;;;;;;;5034473;28;20193;-74
2022/08/27 04:16:16;;;;;;;31.80;25.90;;;;;;;;;;5034595;28;20258;-75
2022/08/27 04:18:41;;;;;;;87.83;29.53;;;;;;;;;;5035047;28;20174;-74
2022/08/27 04:21:10;;;;;;;42.13;28.20;;;;;;;;;;5052013;28;20188;-74
2022/08/27 04:23:36;;;;;;;35.00;29.07;;;;;;;;;;5034308;28;20236;-74
2022/08/27 04:26:04;;;;;;;30.77;26.53;;;;;;;;;;5052244;28;20173;-74
2022/08/27 04:28:30;;;;;;;32.43;26.93;;;;;;;;;;5034982;28;20188;-74
2022/08/27 04:30:55;;;;;;;35.77;27.93;;;;;;;;;;5034388;28;20264;-74
2022/08/27 04:33:21;;;;;;;35.53;27.13;;;;;;;;;;5059669;28;20173;-73
2022/08/27 04:35:46;;;;;;;34.40;28.67;;;;;;;;;;5042529;28;20222;-75
2022/08/27 04:38:11;;;;;;;29.67;24.23;;;;;;;;;;5051810;28;20175;-74
2022/08/27 04:43:20;;;;;;;35.07;28.53;;;;;;;;;;5060225;28;20164;-74
2022/08/27 04:45:46;;;;;;;32.93;26.40;;;;;;;;;;5052477;28;20174;-74
2022/08/27 04:48:13;;;;;;;37.93;30.30;;;;;;;;;;5069371;28;20238;-75
2022/08/27 04:50:42;;;;;;;37.40;29.00;;;;;;;;;;5041009;28;20235;-74
2022/08/27 04:53:08;;;;;;;34.67;27.03;;;;;;;;;;5051185;28;20309;-74
2022/08/27 04:55:39;;;;;;;35.57;29.53;;;;;;;;;;5034036;28;20292;-74
2022/08/27 04:58:04;;;;;;;40.70;31.37;;;;;;;;;;5033375;28;20182;-74
2022/08/27 05:00:29;;;;;;;36.47;31.80;;;;;;;;;;5033892;28;20177;-73
2022/08/27 05:02:54;;;;;;;38.23;30.67;;;;;;;;;;5054450;28;20264;-74
2022/08/27 05:05:20;;;;;;;38.10;30.73;;;;;;;;;;5043277;28;20213;-74
2022/08/27 05:07:45;;;;;;;38.10;32.33;;;;;;;;;;5033695;28;20211;-74
2022/08/27 05:10:10;;;;;;;39.47;31.47;;;;;;;;;;5033475;28;20228;-74
2022/08/27 05:12:36;;;;;;;35.43;28.27;;;;;;;;;;5033201;28;20182;-74
2022/08/27 05:15:01;;;;;;;35.97;29.83;;;;;;;;;;5033615;28;20267;-74
2022/08/27 05:17:30;;;;;;;35.67;29.57;;;;;;;;;;5033489;28;20177;-74
2022/08/27 05:19:55;;;;;;;33.50;28.07;;;;;;;;;;5051708;28;20173;-74
2022/08/27 05:22:20;;;;;;;40.20;29.63;;;;;;;;;;5070999;28;20180;-74
2022/08/27 05:24:45;;;;;;;27.90;24.07;;;;;;;;;;5071146;28;20181;-74
2022/08/27 05:27:10;;;;;;;35.80;25.87;;;;;;;;;;5071030;28;20161;-74
2022/08/27 05:29:36;;;;;;;36.77;31.13;;;;;;;;;;5053137;28;20242;-74
2022/08/27 05:32:01;;;;;;;32.93;25.97;;;;;;;;;;5048060;28;20212;-74
2022/08/27 05:34:26;;;;;;;34.37;28.30;;;;;;;;;;5049387;28;20201;-74
2022/08/27 05:36:52;;;;;;;33.60;27.30;;;;;;;;;;5050820;28;20688;-74
2022/08/27 05:39:17;;;;;;;32.40;26.73;;;;;;;;;;5070841;28;20165;-75
2022/08/27 05:41:42;;;;;;;38.40;30.03;;;;;;;;;;5047428;28;20170;-74
2022/08/27 05:44:08;;;;;;;38.00;28.33;;;;;;;;;;5067426;28;20176;-74
2022/08/27 05:46:35;;;;;;;35.63;30.80;;;;;;;;;;5052722;28;20234;-74
2022/08/27 05:49:00;;;;;;;33.37;27.83;;;;;;;;;;5052833;28;20269;-74
2022/08/27 05:51:30;;;;;;;40.80;30.77;;;;;;;;;;5062680;28;20256;-74
2022/08/27 05:54:02;;;;;;;41.03;29.50;;;;;;;;;;5031459;28;20229;-74
2022/08/27 05:56:29;;;;;;;38.87;31.60;;;;;;;;;;5030285;28;20170;-74
2022/08/27 06:01:40;;;;;;;33.63;25.23;;;;;;;;;;5031093;28;20173;-74
2022/08/27 06:04:06;;;;;;;38.20;28.10;;;;;;;;;;5029571;28;20178;-75
2022/08/27 06:06:35;;;;;;;37.80;29.00;;;;;;;;;;5029430;28;20171;-75
2022/08/27 06:09:01;;;;;;;32.57;26.73;;;;;;;;;;5029670;28;20180;-75
2022/08/27 06:11:27;;;;;;;31.33;24.83;;;;;;;;;;5032182;28;20189;-76
2022/08/27 06:13:52;;;;;;;29.37;24.57;;;;;;;;;;5034399;28;20189;-75
2022/08/27 06:16:18;;;;;;;28.33;23.13;;;;;;;;;;5029536;28;20180;-75
2022/08/27 06:18:44;;;;;;;35.47;25.60;;;;;;;;;;5030185;28;20261;-76
2022/08/27 06:21:10;;;;;;;31.80;26.77;;;;;;;;;;5047536;28;20200;-76
2022/08/27 06:23:36;;;;;;;32.87;25.37;;;;;;;;;;5029054;28;20174;-75
2022/08/27 06:26:04;;;;;;;34.20;26.30;;;;;;;;;;5029984;28;20252;-75
2022/08/27 06:28:30;;;;;;;29.63;23.30;;;;;;;;;;5029090;28;20241;-75
2022/08/27 06:31:05;;;;;;;37.43;27.87;;;;;;;;;;5028920;28;20261;-74
2022/08/27 06:33:30;;;;;;;37.90;28.73;;;;;;;;;;5041237;28;20190;-74
2022/08/27 06:35:59;;;;;;;27.00;21.40;;;;;;;;;;5040877;28;20217;-75
2022/08/27 06:38:25;;;;;;;34.37;27.97;;;;;;;;;;5049004;28;20181;-74
2022/08/27 06:40:51;;;;;;;34.07;27.30;;;;;;;;;;5050063;28;20253;-74
2022/08/27 06:43:16;;;;;;;38.93;27.70;;;;;;;;;;5038034;28;20238;-75
2022/08/27 06:45:41;;;;;;;32.17;26.30;;;;;;;;;;5032892;28;20179;-75
2022/08/27 06:48:06;;;;;;;36.77;27.77;;;;;;;;;;5049005;28;20266;-75
2022/08/27 06:50:36;;;;;;;33.03;25.37;;;;;;;;;;5038712;28;20189;-75
2022/08/27 06:53:01;;;;;;;28.97;23.80;;;;;;;;;;5035795;28;20181;-75
2022/08/27 06:55:26;;;;;;;28.47;22.33;;;;;;;;;;5036388;28;20267;-75
2022/08/27 06:57:51;;;;;;;25.23;20.80;;;;;;;;;;5053819;28;20184;-75
2022/08/27 07:00:17;;;;;;;23.77;20.00;;;;;;;;;;5037310;28;20200;-75
2022/08/27 07:02:42;;;;;;;26.30;22.30;;;;;;;;;;5053879;28;20200;-75
2022/08/27 07:05:08;;;;;;;29.50;23.37;;;;;;;;;;5036350;28;20226;-75
2022/08/27 07:07:33;;;;;;;26.47;22.23;;;;;;;;;;5036116;28;20185;-75
2022/08/27 07:09:59;;;;;;;24.00;20.23;;;;;;;;;;5053688;28;20174;-75
2022/08/27 07:12:25;;;;;;;24.57;19.47;;;;;;;;;;5053680;28;20252;-75
2022/08/27 07:14:50;;;;;;;25.67;19.30;;;;;;;;;;5035659;28;20226;-75
2022/08/27 07:17:16;;;;;;;23.20;19.60;;;;;;;;;;5054121;28;20184;-75
2022/08/27 07:19:41;;;;;;;23.97;21.40;;;;;;;;;;5044631;28;20173;-75
2022/08/27 07:22:06;;;;;;;22.13;19.77;;;;;;;;;;5045084;28;20202;-75
2022/08/27 07:24:32;;;;;;;21.40;19.10;;;;;;;;;;5053513;28;20254;-76
2022/08/27 07:26:57;;;;;;;19.33;16.90;;;;;;;;;;5053872;28;20231;-76
2022/08/27 07:29:23;;;;;;;21.23;18.23;;;;;;;;;;5035091;28;20177;-76
2022/08/27 07:31:48;;;;;;;25.63;20.90;;;;;;;;;;5035595;28;20253;-75
2022/08/27 07:34:14;;;;;;;24.80;20.13;;;;;;;;;;5049132;28;20209;-76
2022/08/27 07:36:39;;;;;;;23.03;19.67;;;;;;;;;;5065891;28;20248;-75
2022/08/27 07:39:05;;;;;;;24.40;21.50;;;;;;;;;;5055352;28;20177;-75
2022/08/27 07:41:31;;;;;;;20.70;18.33;;;;;;;;;;5046917;28;20205;-76
2022/08/27 07:46:40;;;;;;;21.03;16.57;;;;;;;;;;5073198;28;20215;-77
2022/08/27 07:49:05;;;;;;;22.03;17.93;;;;;;;;;;5046977;28;20209;-76
2022/08/27 07:51:31;;;;;;;35.83;18.13;;;;;;;;;;5038624;28;20173;-76
2022/08/27 07:53:57;;;;;;;26.63;22.40;;;;;;;;;;5052437;28;20542;-76
2022/08/27 07:56:22;;;;;;;24.57;21.80;;;;;;;;;;5051836;28;20170;-77
2022/08/27 07:58:48;;;;;;;25.57;22.40;;;;;;;;;;5052873;28;20234;-76
2022/08/27 08:01:13;;;;;;;34.83;25.50;;;;;;;;;;5035515;28;20227;-77
2022/08/27 08:03:39;;;;;;;30.17;24.23;;;;;;;;;;5034935;28;20224;-76
2022/08/27 08:06:06;;;;;;;28.63;23.37;;;;;;;;;;5034911;28;20279;-76
2022/08/27 08:08:33;;;;;;;31.50;24.67;;;;;;;;;;5035439;28;20182;-76
2022/08/27 08:10:58;;;;;;;35.30;25.40;;;;;;;;;;5047059;28;20172;-76
2022/08/27 08:13:23;;;;;;;33.17;27.33;;;;;;;;;;5035956;28;20255;-76
2022/08/27 08:15:49;;;;;;;41.30;28.77;;;;;;;;;;5052531;28;20204;-76
2022/08/27 08:18:14;;;;;;;33.83;25.77;;;;;;;;;;5035203;28;20182;-76
2022/08/27 08:20:39;;;;;;;37.70;27.37;;;;;;;;;;5069680;28;20180;-77
2022/08/27 08:23:05;;;;;;;30.40;23.07;;;;;;;;;;5054761;28;20174;-76
2022/08/27 08:25:30;;;;;;;32.53;24.50;;;;;;;;;;5071794;28;20181;-76
2022/08/27 08:27:56;;;;;;;36.43;29.33;;;;;;;;;;5054374;28;20189;-77
2022/08/27 08:30:21;;;;;;;29.83;24.37;;;;;;;;;;5054814;28;20191;-76
2022/08/27 08:32:47;;;;;;;33.17;24.27;;;;;;;;;;5054416;28;20169;-77
2022/08/27 08:35:12;;;;;;;35.57;28.47;;;;;;;;;;5046039;28;20266;-76
2022/08/27 08:37:37;;;;;;;31.23;26.93;;;;;;;;;;5054329;28;20175;-76
2022/08/27 08:40:03;;;;;;;30.87;26.70;;;;;;;;;;5071768;28;20214;-76
2022/08/27 08:42:31;;;;;;;30.00;26.13;;;;;;;;;;5043208;28;20414;-76
2022/08/27 08:44:58;;;;;;;30.90;25.47;;;;;;;;;;5034380;28;20171;-76
2022/08/27 08:47:23;;;;;;;28.23;22.23;;;;;;;;;;5043045;28;20275;-76
2022/08/27 08:50:08;;;;;;;30.73;23.73;;;;;;;;;;5044475;28;20226;-77
2022/08/27 08:52:34;;;;;;;36.73;27.83;;;;;;;;;;5023374;28;20190;-76
2022/08/27 08:55:14;;;;;;;38.63;28.27;;;;;;;;;;5030766;28;20286;-76
2022/08/27 08:57:44;;;;;;;32.37;26.03;;;;;;;;;;5030958;28;20178;-77
2022/08/27 09:00:12;;;;;;;38.77;29.87;;;;;;;;;;5042633;28;20209;-76
2022/08/27 09:02:37;;;;;;;28.07;24.27;;;;;;;;;;5051712;28;20169;-76
2022/08/27 09:05:04;;;;;;;29.70;24.50;;;;;;;;;;5050304;28;20261;-76
2022/08/27 09:07:49;;;;;;;31.83;26.10;;;;;;;;;;5050715;28;20181;-76
2022/08/27 09:10:20;;;;;;;36.43;28.07;;;;;;;;;;5051564;28;20184;-77
2022/08/27 09:12:46;;;;;;;30.93;24.77;;;;;;;;;;5051431;28;20174;-77
2022/08/27 09:15:13;;;;;;;32.50;26.40;;;;;;;;;;5051941;28;20216;-76
2022/08/27 09:17:40;;;;;;;28.40;25.37;;;;;;;;;;5050437;28;20200;-77
2022/08/27 09:20:07;;;;;;;33.40;29.40;;;;;;;;;;5050218;28;20177;-77
2022/08/27 09:22:52;;;;;;;34.50;27.47;;;;;;;;;;5036267;28;20182;-77
2022/08/27 09:25:31;;;;;;;28.10;24.40;;;;;;;;;;5030082;28;20199;-76
2022/08/27 09:27:58;;;;;;;29.87;23.17;;;;;;;;;;5031140;28;20174;-76
2022/08/27 09:30:25;;;;;;;27.20;24.30;;;;;;;;;;5030441;28;20229;-76
2022/08/27 09:32:54;;;;;;;28.33;24.40;;;;;;;;;;5039863;28;20266;-77
2022/08/27 09:35:19;;;;;;;26.63;23.40;;;;;;;;;;5049799;28;20266;-76
2022/08/27 09:37:46;;;;;;;31.67;23.67;;;;;;;;;;5051205;28;20252;-76
2022/08/27 09:40:12;;;;;;;49.13;26.77;;;;;;;;;;5049821;28;20265;-76
2022/08/27 09:42:48;;;;;;;23.27;20.87;;;;;;;;;;5036752;28;20249;-76
2022/08/27 09:45:18;;;;;;;25.37;22.17;;;;;;;;;;5031281;28;20177;-76
2022/08/27 09:47:51;;;;;;;23.83;21.03;;;;;;;;;;5029969;28;20205;-76
2022/08/27 09:50:17;;;;;;;21.47;19.20;;;;;;;;;;5036092;28;20185;-76
2022/08/27 09:52:57;;;;;;;22.47;20.07;;;;;;;;;;5029865;28;20180;-76
2022/08/27 09:55:25;;;;;;;25.03;22.33;;;;;;;;;;5030482;28;20241;-76
2022/08/27 09:57:51;;;;;;;23.97;20.97;;;;;;;;;;5029667;28;20182;-76
2022/08/27 10:00:16;;;;;;;20.37;18.27;;;;;;;;;;5030719;28;20189;-77
2022/08/27 10:02:50;;;;;;;24.50;19.37;;;;;;;;;;5029538;28;20177;-76
2022/08/27 10:05:21;;;;;;;20.23;16.70;;;;;;;;;;5029802;28;20191;-76
2022/08/27 10:07:57;;;;;;;22.77;20.37;;;;;;;;;;5028525;28;20190;-76
2022/08/27 10:10:46;;;;;;;22.53;20.33;;;;;;;;;;5028464;28;20182;-76
2022/08/27 10:13:11;;;;;;;21.80;18.90;;;;;;;;;;5018822;28;20189;-76
2022/08/27 10:15:44;;;;;;;21.17;18.97;;;;;;;;;;5029948;28;20206;-76
2022/08/27 10:18:13;;;;;;;19.23;17.30;;;;;;;;;;5028627;28;20173;-77
2022/08/27 10:20:58;;;;;;;26.40;23.00;;;;;;;;;;5029899;28;20261;-76
2022/08/27 10:23:42;;;;;;;24.53;21.70;;;;;;;;;;5003842;28;20176;-77
2022/08/27 10:26:19;;;;;;;24.57;20.07;;;;;;;;;;5029759;28;20221;-76
2022/08/27 10:29:04;;;;;;;26.53;23.77;;;;;;;;;;5029750;28;20183;-76
2022/08/27 10:31:39;;;;;;;30.23;23.07;;;;;;;;;;5030634;28;20175;-77
2022/08/27 10:34:05;;;;;;;24.93;21.83;;;;;;;;;;5022822;28;20217;-77
2022/08/27 10:36:40;;;;;;;24.97;22.33;;;;;;;;;;5022233;28;20167;-77
2022/08/27 10:39:19;;;;;;;21.57;18.73;;;;;;;;;;5030864;28;20162;-77
2022/08/27 10:41:50;;;;;;;28.60;25.10;;;;;;;;;;5025741;28;20297;-76
2022/08/27 10:44:25;;;;;;;30.10;26.00;;;;;;;;;;5011646;28;20272;-77
2022/08/27 10:47:02;;;;;;;25.77;22.63;;;;;;;;;;5017389;28;20176;-77
2022/08/27 10:49:39;;;;;;;30.43;26.43;;;;;;;;;;5014933;28;20203;-77
2022/08/27 10:52:24;;;;;;;29.80;25.13;;;;;;;;;;5029470;28;20180;-77
2022/08/27 10:54:56;;;;;;;28.17;25.07;;;;;;;;;;5045254;28;20253;-77
2022/08/27 10:57:34;;;;;;;33.93;27.80;;;;;;;;;;5050317;28;20167;-77
2022/08/27 11:00:09;;;;;;;29.67;24.80;;;;;;;;;;5030361;28;20184;-77
2022/08/27 11:02:34;;;;;;;27.63;23.87;;;;;;;;;;5028932;28;20239;-77
2022/08/27 11:05:05;;;;;;;24.03;21.23;;;;;;;;;;5029129;28;20171;-77
2022/08/27 11:07:36;;;;;;;26.57;23.63;;;;;;;;;;5028957;28;20175;-77
2022/08/27 11:10:04;;;;;;;26.03;23.33;;;;;;;;;;5028857;28;20182;-77
2022/08/27 11:12:37;;;;;;;24.97;21.90;;;;;;;;;;5030159;28;20211;-77
2022/08/27 11:15:04;;;;;;;21.83;19.50;;;;;;;;;;5029935;28;20240;-77
2022/08/27 11:17:31;;;;;;;22.73;18.83;;;;;;;;;;5028915;28;20177;-77
2022/08/27 11:20:07;;;;;;;21.00;18.73;;;;;;;;;;5040238;28;20171;-77
2022/08/27 11:22:36;;;;;;;27.53;24.00;;;;;;;;;;5049769;28;20165;-77
2022/08/27 11:25:20;;;;;;;27.93;23.33;;;;;;;;;;5050184;28;20175;-77
2022/08/27 11:27:47;;;;;;;27.50;24.53;;;;;;;;;;5048854;28;20214;-77
2022/08/27 11:30:34;;;;;;;29.47;25.70;;;;;;;;;;5050069;28;20170;-77
2022/08/27 11:33:06;;;;;;;28.90;23.67;;;;;;;;;;5049321;28;20171;-77
2022/08/27 11:35:41;;;;;;;25.93;20.83;;;;;;;;;;5041665;28;20260;-77
2022/08/27 11:38:26;;;;;;;28.13;24.33;;;;;;;;;;5049205;28;20174;-77
2022/08/27 11:40:51;;;;;;;30.60;26.83;;;;;;;;;;5034442;28;20231;-77
2022/08/27 11:43:19;;;;;;;22.87;19.17;;;;;;;;;;5041887;28;20187;-77
2022/08/27 11:45:52;;;;;;;24.40;21.93;;;;;;;;;;5052202;28;20184;-77
2022/08/27 11:48:21;;;;;;;24.07;21.33;;;;;;;;;;5052088;28;20179;-77
2022/08/27 11:50:55;;;;;;;24.17;20.23;;;;;;;;;;5044946;28;20204;-77
2022/08/27 11:53:39;;;;;;;23.97;18.80;;;;;;;;;;5034991;28;20223;-77
2022/08/27 11:56:14;;;;;;;22.57;20.17;;;;;;;;;;5034832;28;20267;-77
2022/08/27 11:58:39;;;;;;;22.07;19.53;;;;;;;;;;5052965;28;20160;-77
2022/08/27 12:01:13;;;;;;;20.70;18.50;;;;;;;;;;5035285;28;20179;-77
2022/08/27 12:03:39;;;;;;;24.27;21.50;;;;;;;;;;5035333;28;20201;-78
2022/08/27 12:06:08;;;;;;;22.93;19.73;;;;;;;;;;5036219;28;20187;-77
2022/08/27 12:08:34;;;;;;;28.00;24.93;;;;;;;;;;5035039;28;20177;-77
2022/08/27 12:11:17;;;;;;;24.50;21.93;;;;;;;;;;5042481;28;20372;-77
2022/08/27 12:13:52;;;;;;;25.53;22.27;;;;;;;;;;5048586;28;20176;-77
2022/08/27 12:16:17;;;;;;;23.87;19.33;;;;;;;;;;5054911;28;20213;-77
2022/08/27 12:18:45;;;;;;;22.40;20.00;;;;;;;;;;5071772;28;20194;-77
2022/08/27 12:21:14;;;;;;;23.63;21.10;;;;;;;;;;5037542;28;20172;-77
2022/08/27 12:23:49;;;;;;;26.93;19.37;;;;;;;;;;5072014;28;20187;-77
2022/08/27 12:26:15;;;;;;;25.73;22.00;;;;;;;;;;5055222;28;20199;-77
2022/08/27 12:28:40;;;;;;;24.60;22.00;;;;;;;;;;5054606;28;20199;-77
2022/08/27 12:31:05;;;;;;;23.90;21.40;;;;;;;;;;5054809;28;20214;-77
2022/08/27 12:33:32;;;;;;;28.13;24.73;;;;;;;;;;5054183;28;20183;-77
2022/08/27 12:36:04;;;;;;;24.60;20.10;;;;;;;;;;5046056;28;20316;-77
2022/08/27 12:38:33;;;;;;;27.47;21.60;;;;;;;;;;5054665;28;20222;-77
2022/08/27 12:41:02;;;;;;;28.30;25.30;;;;;;;;;;5053372;28;20269;-78
2022/08/27 12:43:29;;;;;;;25.87;23.10;;;;;;;;;;5042916;28;20259;-77
2022/08/27 12:45:56;;;;;;;24.20;21.60;;;;;;;;;;5052058;28;20173;-77
2022/08/27 12:48:24;;;;;;;32.13;27.60;;;;;;;;;;5044923;28;20223;-77
2022/08/27 12:50:54;;;;;;;28.30;21.93;;;;;;;;;;5063609;28;20183;-77
2022/08/27 12:53:22;;;;;;;26.03;19.77;;;;;;;;;;5053634;28;20223;-77
2022/08/27 12:56:01;;;;;;;25.70;21.77;;;;;;;;;;5050897;28;20206;-78
2022/08/27 12:58:32;;;;;;;26.77;23.80;;;;;;;;;;5034536;28;20179;-77
2022/08/27 13:01:16;;;;;;;26.93;23.53;;;;;;;;;;5034163;28;20253;-77
2022/08/27 13:03:44;;;;;;;29.47;24.40;;;;;;;;;;5034720;28;20166;-77
2022/08/27 13:06:20;;;;;;;30.63;27.33;;;;;;;;;;5034056;28;20180;-77
2022/08/27 13:08:46;;;;;;;28.60;25.33;;;;;;;;;;5033830;28;20191;-78
2022/08/27 13:11:20;;;;;;;30.17;26.77;;;;;;;;;;5033801;28;20176;-77
2022/08/27 13:13:46;;;;;;;25.33;22.60;;;;;;;;;;5034264;28;20257;-77
2022/08/27 13:16:11;;;;;;;24.87;21.43;;;;;;;;;;5071014;28;20337;-77
2022/08/27 13:18:37;;;;;;;26.87;23.60;;;;;;;;;;5053609;28;20257;-77
2022/08/27 13:21:11;;;;;;;28.07;25.17;;;;;;;;;;5052422;28;20160;-78
2022/08/27 13:23:36;;;;;;;30.03;26.30;;;;;;;;;;5033716;28;20500;-77
2022/08/27 13:26:08;;;;;;;29.13;26.10;;;;;;;;;;5051613;28;20166;-77
2022/08/27 13:28:35;;;;;;;31.27;25.40;;;;;;;;;;5033652;28;20199;-77
2022/08/27 13:31:01;;;;;;;29.77;25.97;;;;;;;;;;5033923;28;20244;-77
2022/08/27 13:33:28;;;;;;;30.17;26.13;;;;;;;;;;5044033;28;20193;-77
2022/08/27 13:35:56;;;;;;;31.40;22.73;;;;;;;;;;5046207;28;20324;-77
2022/08/27 13:38:22;;;;;;;32.67;27.33;;;;;;;;;;5051209;28;20172;-76
2022/08/27 13:40:55;;;;;;;30.63;25.90;;;;;;;;;;5041139;28;20162;-76
2022/08/27 13:43:25;;;;;;;32.03;26.30;;;;;;;;;;5062509;28;20171;-77
2022/08/27 13:45:53;;;;;;;30.07;26.97;;;;;;;;;;5053245;28;20202;-77
2022/08/27 13:48:18;;;;;;;32.27;27.00;;;;;;;;;;5070217;28;20178;-76
2022/08/27 13:50:51;;;;;;;28.10;23.20;;;;;;;;;;5044741;28;20179;-77
2022/08/27 13:56:27;;;;;;;30.37;23.83;;;;;;;;;;5071387;28;20209;-77
2022/08/27 13:58:52;;;;;;;38.47;25.37;;;;;;;;;;5070507;28;20235;-76
2022/08/27 14:01:29;;;;;;;38.73;30.90;;;;;;;;;;5052887;28;20195;-76
2022/08/27 14:04:14;;;;;;;33.37;29.77;;;;;;;;;;5052630;28;20229;-76
2022/08/27 14:06:41;;;;;;;30.77;27.47;;;;;;;;;;5053969;28;20423;-76
2022/08/27 14:09:18;;;;;;;34.77;28.17;;;;;;;;;;5050622;28;20174;-76
2022/08/27 14:11:44;;;;;;;36.90;29.83;;;;;;;;;;5054210;28;20182;-76
2022/08/27 14:14:09;;;;;;;33.23;29.93;;;;;;;;;;5052587;28;20224;-76
2022/08/27 14:16:35;;;;;;;33.43;28.43;;;;;;;;;;5052652;28;20183;-76
2022/08/27 14:19:09;;;;;;;36.27;29.47;;;;;;;;;;5049297;28;20209;-75
2022/08/27 14:21:35;;;;;;;31.10;27.80;;;;;;;;;;5050380;28;20166;-76
2022/08/27 14:24:01;;;;;;;31.43;27.87;;;;;;;;;;5048223;28;20184;-76
2022/08/27 14:26:29;;;;;;;33.70;29.87;;;;;;;;;;5050735;28;20176;-76
2022/08/27 14:28:54;;;;;;;32.50;27.17;;;;;;;;;;5050427;28;20173;-76
2022/08/27 14:31:20;;;;;;;31.60;27.33;;;;;;;;;;5049608;28;20182;-76
2022/08/27 14:33:46;;;;;;;31.87;28.03;;;;;;;;;;5058110;28;20208;-76
2022/08/27 14:36:12;;;;;;;32.33;28.90;;;;;;;;;;5049966;28;20206;-76
2022/08/27 14:38:38;;;;;;;29.33;26.00;;;;;;;;;;5032285;28;20188;-75